Time;durP1;ratioP1;P1;durP2;ratioP2;P2;SDS_P1;SDS_P2;PMS_P1;PMS_P2;Temp;Humidity;BMP_temperature;BMP_pressure;BME280_temperature;BME280_humidity;BME280_pressure;Samples;Min_cycle;Max_cycle;Signal;HPM_P1;HPM_P2
2021/07/08 00:00:42;;;;;;;7.60;4.93;;;;;;;;;;5076176;28;20441;-68
2021/07/08 00:03:09;;;;;;;4.80;4.40;;;;;;;;;;5076529;28;20611;-68
2021/07/08 00:05:37;;;;;;;6.50;4.73;;;;;;;;;;5088468;28;20477;-68
2021/07/08 00:08:05;;;;;;;6.67;5.13;;;;;;;;;;5096650;28;20802;-69
2021/07/08 00:10:33;;;;;;;6.57;4.83;;;;;;;;;;5096294;28;20446;-68
2021/07/08 00:13:01;;;;;;;7.73;4.90;;;;;;;;;;5096165;28;20448;-69
2021/07/08 00:15:30;;;;;;;8.03;5.20;;;;;;;;;;5096543;28;20873;-69
2021/07/08 00:17:58;;;;;;;12.00;4.90;;;;;;;;;;5096146;28;20468;-69
2021/07/08 00:20:26;;;;;;;5.80;5.30;;;;;;;;;;5096453;28;20526;-67
2021/07/08 00:22:54;;;;;;;12.40;4.63;;;;;;;;;;5082862;28;20515;-68
2021/07/08 00:25:23;;;;;;;9.53;5.37;;;;;;;;;;5076277;28;20543;-68
2021/07/08 00:27:51;;;;;;;6.03;4.73;;;;;;;;;;5083239;28;20846;-68
2021/07/08 00:30:19;;;;;;;6.07;4.57;;;;;;;;;;5096812;28;20449;-68
2021/07/08 00:32:47;;;;;;;5.77;5.17;;;;;;;;;;5092093;28;20783;-68
2021/07/08 00:35:15;;;;;;;5.97;5.47;;;;;;;;;;5075499;28;20434;-68
2021/07/08 00:37:42;;;;;;;5.30;4.70;;;;;;;;;;5075694;28;20524;-68
2021/07/08 00:40:11;;;;;;;6.20;5.70;;;;;;;;;;5075861;28;20436;-68
2021/07/08 00:42:39;;;;;;;6.97;6.27;;;;;;;;;;5075748;28;20447;-68
2021/07/08 00:45:07;;;;;;;7.27;5.67;;;;;;;;;;5075421;28;20476;-68
2021/07/08 00:47:34;;;;;;;7.27;6.20;;;;;;;;;;5075450;28;20480;-69
2021/07/08 00:50:02;;;;;;;6.10;5.60;;;;;;;;;;5075342;28;20441;-69
2021/07/08 00:52:29;;;;;;;5.50;5.10;;;;;;;;;;5076318;28;20477;-69
2021/07/08 00:54:57;;;;;;;5.93;5.33;;;;;;;;;;5095191;28;20497;-68
2021/07/08 00:57:24;;;;;;;6.07;5.10;;;;;;;;;;5095688;28;20450;-68
2021/07/08 00:59:53;;;;;;;8.23;5.47;;;;;;;;;;5096516;28;20436;-69
2021/07/08 01:02:20;;;;;;;6.00;5.40;;;;;;;;;;5080195;28;20518;-69
2021/07/08 01:04:48;;;;;;;5.90;5.40;;;;;;;;;;5074888;28;20840;-69
2021/07/08 01:07:20;;;;;;;10.83;6.43;;;;;;;;;;5074935;28;20482;-69
2021/07/08 01:09:47;;;;;;;6.97;6.33;;;;;;;;;;5075305;28;20543;-69
2021/07/08 01:12:14;;;;;;;6.67;6.07;;;;;;;;;;5074972;28;20536;-69
2021/07/08 01:14:42;;;;;;;10.30;6.47;;;;;;;;;;5074563;28;20545;-69
2021/07/08 01:17:09;;;;;;;6.50;5.03;;;;;;;;;;5074957;28;20559;-69
2021/07/08 01:19:37;;;;;;;8.10;7.33;;;;;;;;;;5083876;28;20973;-69
2021/07/08 01:22:06;;;;;;;7.10;6.40;;;;;;;;;;5073965;28;20449;-70
2021/07/08 01:24:34;;;;;;;7.00;6.30;;;;;;;;;;5093861;28;20575;-69
2021/07/08 01:27:01;;;;;;;6.30;5.70;;;;;;;;;;5094725;28;20988;-69
2021/07/08 01:29:29;;;;;;;6.80;6.20;;;;;;;;;;5094926;28;20448;-70
2021/07/08 01:31:56;;;;;;;6.70;6.00;;;;;;;;;;5094832;28;20530;-70
2021/07/08 01:34:23;;;;;;;7.70;7.00;;;;;;;;;;5094951;28;20528;-70
2021/07/08 01:36:50;;;;;;;7.00;6.40;;;;;;;;;;5094711;28;20506;-69
2021/07/08 01:39:19;;;;;;;7.43;6.33;;;;;;;;;;5094638;28;20963;-70
2021/07/08 01:41:47;;;;;;;8.20;6.67;;;;;;;;;;5094283;28;20542;-70
2021/07/08 01:44:14;;;;;;;7.73;7.03;;;;;;;;;;5087588;28;20458;-72
2021/07/08 01:46:41;;;;;;;9.60;6.40;;;;;;;;;;5074436;28;20820;-69
2021/07/08 01:49:08;;;;;;;7.90;7.10;;;;;;;;;;5074189;28;20548;-69
2021/07/08 01:51:36;;;;;;;10.20;6.27;;;;;;;;;;5074452;28;20444;-69
2021/07/08 01:54:04;;;;;;;6.70;6.10;;;;;;;;;;5073952;28;20496;-69
2021/07/08 01:56:33;;;;;;;7.23;6.53;;;;;;;;;;5074344;28;20780;-69
2021/07/08 01:59:00;;;;;;;8.17;6.83;;;;;;;;;;5074385;28;20453;-70
2021/07/08 02:01:28;;;;;;;7.03;5.90;;;;;;;;;;5074207;28;20444;-69
2021/07/08 02:03:55;;;;;;;7.53;6.63;;;;;;;;;;5073640;28;20453;-69
2021/07/08 02:06:23;;;;;;;6.63;6.03;;;;;;;;;;5073838;28;20503;-69
2021/07/08 02:08:50;;;;;;;6.77;6.03;;;;;;;;;;5074525;28;20528;-69
2021/07/08 02:11:18;;;;;;;7.80;6.97;;;;;;;;;;5073434;28;20960;-69
2021/07/08 02:13:47;;;;;;;8.67;6.53;;;;;;;;;;5073709;28;20441;-69
2021/07/08 02:16:14;;;;;;;9.10;6.77;;;;;;;;;;5072716;28;20528;-69
2021/07/08 02:18:42;;;;;;;8.03;6.23;;;;;;;;;;5073436;28;21017;-70
2021/07/08 02:21:10;;;;;;;7.17;6.40;;;;;;;;;;5094166;28;20535;-69
2021/07/08 02:23:38;;;;;;;7.93;6.80;;;;;;;;;;5093916;28;20558;-69
2021/07/08 02:26:05;;;;;;;11.67;6.80;;;;;;;;;;5093790;28;20454;-69
2021/07/08 02:28:32;;;;;;;8.07;7.27;;;;;;;;;;5093609;28;21006;-69
2021/07/08 02:31:01;;;;;;;14.27;7.00;;;;;;;;;;5093572;28;20439;-69
2021/07/08 02:33:28;;;;;;;9.50;7.80;;;;;;;;;;5093698;28;20955;-69
2021/07/08 02:35:56;;;;;;;9.70;8.63;;;;;;;;;;5090005;28;20536;-71
2021/07/08 02:38:23;;;;;;;8.80;7.90;;;;;;;;;;5084451;28;20444;-69
2021/07/08 02:40:51;;;;;;;8.43;7.10;;;;;;;;;;5084312;28;20433;-69
2021/07/08 02:43:18;;;;;;;8.77;7.47;;;;;;;;;;5084743;28;20447;-69
2021/07/08 02:45:46;;;;;;;8.87;7.57;;;;;;;;;;5078125;28;20442;-69
2021/07/08 02:48:15;;;;;;;9.27;7.90;;;;;;;;;;5079089;28;20473;-69
2021/07/08 02:50:44;;;;;;;8.27;7.57;;;;;;;;;;5082216;28;20524;-69
2021/07/08 02:53:11;;;;;;;8.43;7.70;;;;;;;;;;5087083;28;20456;-69
2021/07/08 02:55:39;;;;;;;8.80;7.97;;;;;;;;;;5074441;28;20969;-70
2021/07/08 02:58:06;;;;;;;7.23;6.53;;;;;;;;;;5073313;28;20535;-69
2021/07/08 03:00:34;;;;;;;8.90;7.07;;;;;;;;;;5073113;28;20464;-70
2021/07/08 03:03:01;;;;;;;7.97;7.17;;;;;;;;;;5073036;28;20440;-69
2021/07/08 03:05:30;;;;;;;12.43;7.37;;;;;;;;;;5073047;28;20486;-70
2021/07/08 03:07:57;;;;;;;7.70;7.00;;;;;;;;;;5079442;28;20476;-70
2021/07/08 03:10:26;;;;;;;9.43;8.30;;;;;;;;;;5089030;28;20447;-69
2021/07/08 03:12:53;;;;;;;8.13;7.33;;;;;;;;;;5085955;28;20542;-69
2021/07/08 03:15:21;;;;;;;8.27;7.47;;;;;;;;;;5093304;28;20523;-69
2021/07/08 03:17:48;;;;;;;8.33;7.53;;;;;;;;;;5084462;28;20460;-69
2021/07/08 03:20:17;;;;;;;8.13;7.43;;;;;;;;;;5072792;28;20855;-69
2021/07/08 03:22:46;;;;;;;13.23;8.73;;;;;;;;;;5085155;28;20451;-69
2021/07/08 03:25:14;;;;;;;9.17;8.30;;;;;;;;;;5093601;28;20909;-69
2021/07/08 03:27:41;;;;;;;8.73;7.90;;;;;;;;;;5094111;28;21006;-69
2021/07/08 03:30:10;;;;;;;9.80;8.80;;;;;;;;;;5097424;28;20451;-69
2021/07/08 03:32:37;;;;;;;10.60;8.47;;;;;;;;;;5097162;28;20850;-69
2021/07/08 03:35:05;;;;;;;8.80;8.00;;;;;;;;;;5095297;28;20900;-69
2021/07/08 03:37:32;;;;;;;14.97;9.33;;;;;;;;;;5077118;28;20528;-69
2021/07/08 03:40:00;;;;;;;9.40;8.40;;;;;;;;;;5077172;28;20441;-69
2021/07/08 03:42:28;;;;;;;9.50;8.53;;;;;;;;;;5091441;28;20546;-69
2021/07/08 03:44:55;;;;;;;10.80;8.43;;;;;;;;;;5097171;28;20534;-69
2021/07/08 03:47:22;;;;;;;14.10;8.33;;;;;;;;;;5078093;28;20571;-69
2021/07/08 03:49:49;;;;;;;9.27;8.30;;;;;;;;;;5096724;28;20442;-69
2021/07/08 03:52:16;;;;;;;10.90;8.60;;;;;;;;;;5096806;28;20926;-69
2021/07/08 03:54:44;;;;;;;10.93;9.10;;;;;;;;;;5084643;28;20487;-69
2021/07/08 03:57:12;;;;;;;10.00;8.63;;;;;;;;;;5077185;28;20805;-69
2021/07/08 03:59:39;;;;;;;10.47;8.80;;;;;;;;;;5076204;28;20456;-69
2021/07/08 04:02:07;;;;;;;10.50;8.80;;;;;;;;;;5076355;28;20456;-69
2021/07/08 04:04:38;;;;;;;9.90;8.90;;;;;;;;;;5076069;28;20523;-69
2021/07/08 04:07:05;;;;;;;10.30;8.87;;;;;;;;;;5081876;28;20459;-69
2021/07/08 04:09:33;;;;;;;11.80;9.13;;;;;;;;;;5081535;28;20517;-68
2021/07/08 04:12:00;;;;;;;10.60;8.83;;;;;;;;;;5084370;28;20517;-69
2021/07/08 04:14:29;;;;;;;10.27;9.27;;;;;;;;;;5093591;28;20948;-68
2021/07/08 04:16:56;;;;;;;10.53;9.40;;;;;;;;;;5096205;28;20460;-68
2021/07/08 04:19:24;;;;;;;10.30;9.10;;;;;;;;;;5096519;28;20493;-69
2021/07/08 04:21:51;;;;;;;9.33;8.43;;;;;;;;;;5095768;28;20451;-68
2021/07/08 04:24:18;;;;;;;9.37;8.43;;;;;;;;;;5080742;28;20556;-69
2021/07/08 04:26:45;;;;;;;12.50;8.83;;;;;;;;;;5086107;28;20504;-70
2021/07/08 04:29:12;;;;;;;11.10;10.10;;;;;;;;;;5088517;28;20446;-70
2021/07/08 04:31:41;;;;;;;10.97;9.83;;;;;;;;;;5075451;28;20476;-70
2021/07/08 04:34:08;;;;;;;11.73;10.63;;;;;;;;;;5077081;28;20809;-70
2021/07/08 04:36:35;;;;;;;15.03;11.03;;;;;;;;;;5084062;28;20524;-70
2021/07/08 04:39:04;;;;;;;13.17;11.80;;;;;;;;;;5084658;28;20436;-69
2021/07/08 04:41:31;;;;;;;13.93;12.43;;;;;;;;;;5079138;28;20786;-70
2021/07/08 04:43:59;;;;;;;13.10;11.80;;;;;;;;;;5079115;28;20462;-70
2021/07/08 04:46:27;;;;;;;13.63;12.37;;;;;;;;;;5075918;28;20467;-69
2021/07/08 04:48:56;;;;;;;13.73;12.00;;;;;;;;;;5075372;28;20519;-69
2021/07/08 04:51:23;;;;;;;13.47;12.03;;;;;;;;;;5095662;28;20848;-69
2021/07/08 04:53:51;;;;;;;16.27;13.00;;;;;;;;;;5095318;28;20477;-69
2021/07/08 04:56:18;;;;;;;16.83;13.47;;;;;;;;;;5095694;28;20614;-69
2021/07/08 04:58:45;;;;;;;16.53;14.03;;;;;;;;;;5080477;28;20452;-69
2021/07/08 05:01:13;;;;;;;18.83;13.80;;;;;;;;;;5086494;28;20444;-69
2021/07/08 05:03:40;;;;;;;17.00;15.07;;;;;;;;;;5094941;28;20459;-70
2021/07/08 05:06:09;;;;;;;17.27;13.80;;;;;;;;;;5095201;28;20929;-69
2021/07/08 05:08:36;;;;;;;15.77;13.30;;;;;;;;;;5078669;28;21067;-70
2021/07/08 05:11:04;;;;;;;18.50;14.60;;;;;;;;;;5075264;28;20460;-71
2021/07/08 05:13:31;;;;;;;16.40;13.80;;;;;;;;;;5075160;28;20436;-71
2021/07/08 05:15:58;;;;;;;15.27;13.80;;;;;;;;;;5075141;28;20449;-71
2021/07/08 05:18:25;;;;;;;14.10;12.20;;;;;;;;;;5084286;28;20456;-71
2021/07/08 05:20:53;;;;;;;11.70;10.50;;;;;;;;;;5076529;28;20792;-70
2021/07/08 05:23:25;;;;;;;15.97;10.90;;;;;;;;;;5094665;28;20531;-70
2021/07/08 05:25:52;;;;;;;12.57;10.23;;;;;;;;;;5086004;28;20436;-70
2021/07/08 05:28:20;;;;;;;17.50;12.87;;;;;;;;;;5074309;28;20473;-74
2021/07/08 05:30:47;;;;;;;15.53;11.57;;;;;;;;;;5074928;28;20452;-74
2021/07/08 05:33:14;;;;;;;15.33;11.30;;;;;;;;;;5074984;28;20443;-72
2021/07/08 05:35:42;;;;;;;12.80;11.40;;;;;;;;;;5094598;28;20432;-74
2021/07/08 05:38:09;;;;;;;12.03;10.93;;;;;;;;;;5095010;28;20444;-74
2021/07/08 05:40:37;;;;;;;11.53;10.23;;;;;;;;;;5095080;28;20809;-74
2021/07/08 05:43:06;;;;;;;12.53;11.20;;;;;;;;;;5095060;28;20441;-74
2021/07/08 05:45:33;;;;;;;14.47;11.10;;;;;;;;;;5095289;28;20445;-74
2021/07/08 05:48:01;;;;;;;11.87;10.77;;;;;;;;;;5094375;28;20567;-74
2021/07/08 05:50:28;;;;;;;10.87;9.80;;;;;;;;;;5093715;28;20443;-74
2021/07/08 05:52:55;;;;;;;14.13;9.10;;;;;;;;;;5074315;28;20524;-74
2021/07/08 05:55:22;;;;;;;10.97;9.83;;;;;;;;;;5074340;28;20478;-74
2021/07/08 05:57:51;;;;;;;10.03;9.13;;;;;;;;;;5074366;28;20539;-74
2021/07/08 06:00:19;;;;;;;11.93;8.73;;;;;;;;;;5074272;28;20472;-73
2021/07/08 06:02:47;;;;;;;10.50;8.57;;;;;;;;;;5074116;28;20932;-74
2021/07/08 06:05:15;;;;;;;16.10;10.20;;;;;;;;;;5074195;28;20868;-74
2021/07/08 06:07:42;;;;;;;13.33;9.30;;;;;;;;;;5074071;28;20572;-73
2021/07/08 06:10:10;;;;;;;10.30;9.20;;;;;;;;;;5074279;28;20622;-74
2021/07/08 06:12:38;;;;;;;11.00;8.70;;;;;;;;;;5074032;28;20855;-74
2021/07/08 06:15:07;;;;;;;10.00;8.00;;;;;;;;;;5073733;28;20525;-74
2021/07/08 06:17:34;;;;;;;10.07;7.80;;;;;;;;;;5074998;28;20442;-74
2021/07/08 06:20:02;;;;;;;12.07;8.53;;;;;;;;;;5094135;28;20440;-72
2021/07/08 06:22:29;;;;;;;11.63;8.00;;;;;;;;;;5094557;28;20519;-73
2021/07/08 06:24:56;;;;;;;12.30;9.30;;;;;;;;;;5093743;28;20452;-73
2021/07/08 06:27:23;;;;;;;11.07;10.07;;;;;;;;;;5094131;28;20445;-74
2021/07/08 06:29:51;;;;;;;9.63;8.40;;;;;;;;;;5093688;28;21017;-74
2021/07/08 06:32:19;;;;;;;10.30;9.10;;;;;;;;;;5094464;28;20531;-74
2021/07/08 06:34:47;;;;;;;13.63;9.30;;;;;;;;;;5094268;28;20494;-74
2021/07/08 06:37:16;;;;;;;17.13;8.53;;;;;;;;;;5094293;28;20532;-74
2021/07/08 06:39:43;;;;;;;13.70;9.00;;;;;;;;;;5094238;28;20591;-75
2021/07/08 06:42:10;;;;;;;14.50;10.40;;;;;;;;;;5093885;28;20502;-74
2021/07/08 06:44:37;;;;;;;12.90;9.80;;;;;;;;;;5093796;28;20451;-74
2021/07/08 06:47:05;;;;;;;11.00;8.50;;;;;;;;;;5093715;28;20928;-74
2021/07/08 06:49:34;;;;;;;9.90;9.00;;;;;;;;;;5093322;28;20538;-74
2021/07/08 06:52:02;;;;;;;16.73;9.40;;;;;;;;;;5090816;28;20861;-74
2021/07/08 06:54:29;;;;;;;13.33;8.73;;;;;;;;;;5073201;28;20536;-74
2021/07/08 06:56:56;;;;;;;10.40;8.57;;;;;;;;;;5073110;28;20952;-74
2021/07/08 06:59:23;;;;;;;14.07;8.07;;;;;;;;;;5074015;28;20525;-75
2021/07/08 07:01:50;;;;;;;12.40;6.90;;;;;;;;;;5073272;28;20442;-74
2021/07/08 07:04:18;;;;;;;11.87;6.80;;;;;;;;;;5073428;28;20481;-74
2021/07/08 07:06:47;;;;;;;9.10;7.47;;;;;;;;;;5073030;28;20451;-73
2021/07/08 07:09:14;;;;;;;10.93;8.80;;;;;;;;;;5073075;28;20471;-74
2021/07/08 07:11:41;;;;;;;15.77;8.07;;;;;;;;;;5072961;28;20948;-74
2021/07/08 07:14:08;;;;;;;8.00;7.30;;;;;;;;;;5073217;28;20534;-73
2021/07/08 07:16:36;;;;;;;13.20;7.50;;;;;;;;;;5073038;28;20534;-74
2021/07/08 07:19:03;;;;;;;9.90;7.50;;;;;;;;;;5075328;28;20942;-74
2021/07/08 07:21:30;;;;;;;9.03;7.93;;;;;;;;;;5093712;28;20480;-73
2021/07/08 07:24:01;;;;;;;12.13;8.43;;;;;;;;;;5093415;28;20448;-73
2021/07/08 07:26:28;;;;;;;19.97;8.10;;;;;;;;;;5093541;28;20430;-73
2021/07/08 07:28:55;;;;;;;8.93;7.07;;;;;;;;;;5093193;28;20489;-74
2021/07/08 07:31:22;;;;;;;11.03;7.67;;;;;;;;;;5092958;28;20954;-73
2021/07/08 07:33:49;;;;;;;8.37;6.20;;;;;;;;;;5093114;28;20478;-73
2021/07/08 07:36:17;;;;;;;11.77;8.93;;;;;;;;;;5092967;28;20482;-73
2021/07/08 07:38:44;;;;;;;16.90;6.73;;;;;;;;;;5093178;28;20439;-74
2021/07/08 07:41:13;;;;;;;13.30;6.33;;;;;;;;;;5093758;28;20436;-73
2021/07/08 07:43:40;;;;;;;12.70;6.00;;;;;;;;;;5093109;28;20447;-74
2021/07/08 07:46:08;;;;;;;12.20;6.40;;;;;;;;;;5093107;28;20442;-73
2021/07/08 07:48:35;;;;;;;10.10;5.83;;;;;;;;;;5092944;28;20522;-73
2021/07/08 07:51:02;;;;;;;11.30;5.40;;;;;;;;;;5093050;28;20533;-73
2021/07/08 07:53:29;;;;;;;6.37;5.03;;;;;;;;;;5092705;28;20526;-73
2021/07/08 07:55:57;;;;;;;5.77;4.70;;;;;;;;;;5092938;28;20441;-73
2021/07/08 07:58:27;;;;;;;10.93;5.23;;;;;;;;;;5093402;28;20453;-73
2021/07/08 08:00:56;;;;;;;5.80;4.83;;;;;;;;;;5092664;28;20459;-73
2021/07/08 08:03:23;;;;;;;7.70;5.10;;;;;;;;;;5092906;28;20533;-73
2021/07/08 08:08:27;;;;;;;4.80;4.40;;;;;;;;;;5092948;28;20538;-73
2021/07/08 08:08:42;;;;;;;6.30;4.37;;;;;;;;;;5092555;28;20989;-73
2021/07/08 08:11:10;;;;;;;4.43;4.00;;;;;;;;;;5092571;28;20436;-72
2021/07/08 08:13:39;;;;;;;7.67;4.70;;;;;;;;;;5092500;28;20895;-73
2021/07/08 08:16:07;;;;;;;9.33;5.40;;;;;;;;;;5095822;28;20437;-73
2021/07/08 08:18:36;;;;;;;5.90;4.40;;;;;;;;;;5096140;28;20446;-73
2021/07/08 08:21:03;;;;;;;4.90;3.87;;;;;;;;;;5096558;28;20807;-73
2021/07/08 08:23:30;;;;;;;5.40;4.13;;;;;;;;;;5095934;28;20541;-73
2021/07/08 08:26:00;;;;;;;4.43;4.03;;;;;;;;;;5096032;28;20530;-73
2021/07/08 08:28:27;;;;;;;7.07;4.37;;;;;;;;;;5096224;28;20475;-73
2021/07/08 08:30:56;;;;;;;6.10;4.10;;;;;;;;;;5096130;28;20449;-73
2021/07/08 08:33:24;;;;;;;6.10;3.90;;;;;;;;;;5095855;28;20470;-73
2021/07/08 08:35:51;;;;;;;6.57;4.87;;;;;;;;;;5096115;28;20490;-73
2021/07/08 08:38:19;;;;;;;6.47;5.10;;;;;;;;;;5096338;28;20489;-73
2021/07/08 08:40:48;;;;;;;8.33;4.87;;;;;;;;;;5095745;28;20534;-73
2021/07/08 08:43:15;;;;;;;6.07;4.10;;;;;;;;;;5096491;28;20446;-73
2021/07/08 08:45:43;;;;;;;7.57;3.70;;;;;;;;;;5095493;28;20458;-73
2021/07/08 08:48:12;;;;;;;9.63;3.90;;;;;;;;;;5095809;28;20477;-73
2021/07/08 08:50:41;;;;;;;6.73;3.97;;;;;;;;;;5095558;28;21047;-73
2021/07/08 08:53:08;;;;;;;3.60;3.23;;;;;;;;;;5096179;28;20443;-73
2021/07/08 08:55:36;;;;;;;8.30;4.03;;;;;;;;;;5096322;28;20471;-73
2021/07/08 08:58:04;;;;;;;5.63;4.50;;;;;;;;;;5095621;28;20530;-73
2021/07/08 09:00:42;;;;;;;7.00;3.93;;;;;;;;;;5095668;28;20447;-73
2021/07/08 09:03:10;;;;;;;4.33;3.93;;;;;;;;;;5095441;28;20480;-73
2021/07/08 09:05:39;;;;;;;8.37;4.00;;;;;;;;;;5095231;28;20451;-73
2021/07/08 09:08:10;;;;;;;4.50;3.17;;;;;;;;;;5095457;28;20439;-73
2021/07/08 09:10:38;;;;;;;4.40;3.60;;;;;;;;;;5095850;28;20457;-72
2021/07/08 09:13:06;;;;;;;6.20;4.10;;;;;;;;;;5095476;28;20450;-72
2021/07/08 09:15:34;;;;;;;3.90;3.43;;;;;;;;;;5095147;28;20445;-73
2021/07/08 09:18:01;;;;;;;5.47;3.20;;;;;;;;;;5095359;28;20466;-73
2021/07/08 09:20:28;;;;;;;7.87;4.00;;;;;;;;;;5095247;28;20515;-73
2021/07/08 09:23:09;;;;;;;4.20;3.10;;;;;;;;;;5095522;28;20439;-73
2021/07/08 09:25:36;;;;;;;3.30;3.00;;;;;;;;;;5095690;28;20913;-73
2021/07/08 09:28:19;;;;;;;4.90;3.50;;;;;;;;;;5095385;28;20436;-72
2021/07/08 09:30:47;;;;;;;4.10;3.50;;;;;;;;;;5095362;28;20444;-70
2021/07/08 09:33:30;;;;;;;6.87;3.30;;;;;;;;;;5095095;28;20536;-73
2021/07/08 09:36:05;;;;;;;4.27;2.70;;;;;;;;;;5095616;28;20443;-73
2021/07/08 09:38:33;;;;;;;6.20;3.23;;;;;;;;;;5095600;28;20443;-70
2021/07/08 09:41:11;;;;;;;6.07;3.53;;;;;;;;;;5094627;28;20534;-73
2021/07/08 09:43:39;;;;;;;8.77;3.80;;;;;;;;;;5095234;28;20440;-71
2021/07/08 09:46:07;;;;;;;5.90;3.97;;;;;;;;;;5094550;28;20468;-71
2021/07/08 09:48:35;;;;;;;4.40;3.77;;;;;;;;;;5094667;28;21075;-71
2021/07/08 09:51:02;;;;;;;7.97;3.40;;;;;;;;;;5094385;28;20450;-71
2021/07/08 09:53:30;;;;;;;3.60;3.30;;;;;;;;;;5094272;28;20520;-71
2021/07/08 09:56:06;;;;;;;3.80;3.40;;;;;;;;;;5094714;28;20456;-71
2021/07/08 09:58:34;;;;;;;5.40;3.50;;;;;;;;;;5094452;28;20429;-71
2021/07/08 10:01:12;;;;;;;5.33;3.10;;;;;;;;;;5094765;28;20532;-71
2021/07/08 10:03:39;;;;;;;5.40;3.97;;;;;;;;;;5095138;28;20444;-71
2021/07/08 10:06:06;;;;;;;7.07;3.50;;;;;;;;;;5094215;28;20963;-71
2021/07/08 10:08:34;;;;;;;5.30;3.53;;;;;;;;;;5094245;28;20449;-71
2021/07/08 10:11:03;;;;;;;5.13;2.83;;;;;;;;;;5094068;28;20442;-72
2021/07/08 10:13:30;;;;;;;5.97;3.03;;;;;;;;;;5094426;28;20453;-71
2021/07/08 10:15:58;;;;;;;5.67;3.30;;;;;;;;;;5094380;28;20787;-71
2021/07/08 10:18:25;;;;;;;3.50;3.00;;;;;;;;;;5094403;28;20841;-71
2021/07/08 10:20:55;;;;;;;6.63;3.67;;;;;;;;;;5094033;28;20820;-71
2021/07/08 10:23:22;;;;;;;6.73;3.17;;;;;;;;;;5094218;28;20447;-71
2021/07/08 10:25:50;;;;;;;4.60;3.60;;;;;;;;;;5094049;28;20438;-71
2021/07/08 10:28:19;;;;;;;4.17;2.60;;;;;;;;;;5093686;28;20538;-71
2021/07/08 10:30:47;;;;;;;5.30;3.10;;;;;;;;;;5094549;28;20486;-71
2021/07/08 10:33:14;;;;;;;3.13;2.83;;;;;;;;;;5093681;28;20524;-71
2021/07/08 10:35:43;;;;;;;3.00;2.73;;;;;;;;;;5093982;28;20441;-71
2021/07/08 10:38:28;;;;;;;9.43;3.70;;;;;;;;;;5093395;28;20467;-71
2021/07/08 10:40:56;;;;;;;5.30;3.50;;;;;;;;;;5093658;28;20526;-71
2021/07/08 10:43:34;;;;;;;5.20;2.80;;;;;;;;;;5093968;28;20484;-71
2021/07/08 10:46:02;;;;;;;4.80;3.03;;;;;;;;;;5093513;28;20436;-71
2021/07/08 10:48:38;;;;;;;4.60;3.27;;;;;;;;;;5093449;28;20445;-71
2021/07/08 10:51:06;;;;;;;4.10;3.37;;;;;;;;;;5094172;28;20428;-71
2021/07/08 10:53:35;;;;;;;4.23;2.87;;;;;;;;;;5093297;28;20509;-71
2021/07/08 10:56:02;;;;;;;5.87;3.13;;;;;;;;;;5093460;28;20440;-71
2021/07/08 10:58:46;;;;;;;5.17;3.10;;;;;;;;;;5093517;28;20497;-71
2021/07/08 11:01:28;;;;;;;6.30;5.20;;;;;;;;;;5093769;28;20422;-71
2021/07/08 11:03:57;;;;;;;3.80;2.70;;;;;;;;;;5093538;28;20432;-71
2021/07/08 11:06:25;;;;;;;11.00;3.50;;;;;;;;;;5093619;28;20538;-71
2021/07/08 11:08:55;;;;;;;3.27;2.33;;;;;;;;;;5093627;28;20446;-71
2021/07/08 11:11:42;;;;;;;2.97;2.73;;;;;;;;;;5093849;28;20448;-71
2021/07/08 11:14:25;;;;;;;4.50;3.17;;;;;;;;;;5093516;28;20450;-71
2021/07/08 11:16:54;;;;;;;4.00;2.73;;;;;;;;;;5092128;28;21109;-71
2021/07/08 11:19:32;;;;;;;4.33;2.40;;;;;;;;;;5093829;28;20518;-71
2021/07/08 11:22:01;;;;;;;3.87;2.67;;;;;;;;;;5093498;28;20539;-70
2021/07/08 11:24:29;;;;;;;4.47;2.87;;;;;;;;;;5093250;28;20475;-71
2021/07/08 11:26:58;;;;;;;2.70;2.50;;;;;;;;;;5093455;28;20444;-71
2021/07/08 11:29:36;;;;;;;4.37;3.50;;;;;;;;;;5093107;28;20513;-71
2021/07/08 11:32:18;;;;;;;3.83;3.07;;;;;;;;;;5093423;28;20444;-71
2021/07/08 11:34:50;;;;;;;5.27;2.90;;;;;;;;;;5093875;28;20421;-71
2021/07/08 11:37:21;;;;;;;5.30;3.03;;;;;;;;;;5093385;28;20427;-70
2021/07/08 11:39:49;;;;;;;4.83;2.97;;;;;;;;;;5093227;28;20513;-71
2021/07/08 11:42:17;;;;;;;4.87;3.17;;;;;;;;;;5092715;28;20447;-71
2021/07/08 11:44:45;;;;;;;5.00;2.70;;;;;;;;;;5093599;28;20441;-71
2021/07/08 11:47:13;;;;;;;3.33;2.97;;;;;;;;;;5093179;28;20773;-70
2021/07/08 11:49:41;;;;;;;3.57;3.27;;;;;;;;;;5095271;28;20558;-71
2021/07/08 11:52:18;;;;;;;3.07;2.60;;;;;;;;;;5096649;28;20462;-71
2021/07/08 11:54:59;;;;;;;4.70;3.30;;;;;;;;;;5096708;28;20481;-71
2021/07/08 11:57:30;;;;;;;5.17;3.57;;;;;;;;;;5097164;28;20439;-71
2021/07/08 11:59:57;;;;;;;3.80;3.50;;;;;;;;;;5096503;28;20991;-71
2021/07/08 12:02:36;;;;;;;3.67;2.33;;;;;;;;;;5097134;28;20476;-72
2021/07/08 12:05:13;;;;;;;2.70;2.50;;;;;;;;;;5097082;28;20856;-71
2021/07/08 12:07:43;;;;;;;3.00;2.73;;;;;;;;;;5096408;28;21020;-71
2021/07/08 12:10:11;;;;;;;3.30;3.00;;;;;;;;;;5096781;28;20475;-71
2021/07/08 12:12:40;;;;;;;3.17;2.50;;;;;;;;;;5097110;28;20498;-71
2021/07/08 12:15:07;;;;;;;3.37;2.40;;;;;;;;;;5096527;28;20522;-71
2021/07/08 12:17:36;;;;;;;5.83;2.87;;;;;;;;;;5096169;28;20440;-71
2021/07/08 12:20:10;;;;;;;7.60;2.40;;;;;;;;;;5096043;28;20635;-71
2021/07/08 12:22:52;;;;;;;8.33;2.80;;;;;;;;;;5096561;28;20880;-71
2021/07/08 12:25:20;;;;;;;4.57;2.40;;;;;;;;;;5096974;28;20508;-71
2021/07/08 12:27:48;;;;;;;3.23;2.60;;;;;;;;;;5096479;28;20435;-72
2021/07/08 12:30:18;;;;;;;4.53;2.50;;;;;;;;;;5096553;28;20485;-71
2021/07/08 12:32:47;;;;;;;3.80;3.00;;;;;;;;;;5096220;28;20535;-71
2021/07/08 12:35:21;;;;;;;4.73;3.50;;;;;;;;;;5096537;28;20864;-71
2021/07/08 12:37:50;;;;;;;4.80;2.67;;;;;;;;;;5096260;28;20435;-72
2021/07/08 12:40:23;;;;;;;6.37;3.00;;;;;;;;;;5096089;28;20447;-71
2021/07/08 12:42:51;;;;;;;5.80;3.30;;;;;;;;;;5096081;28;20433;-71
2021/07/08 12:45:19;;;;;;;3.33;3.03;;;;;;;;;;5096043;28;20998;-71
2021/07/08 12:47:50;;;;;;;6.07;3.57;;;;;;;;;;5095778;28;20956;-71
2021/07/08 12:50:19;;;;;;;3.03;2.83;;;;;;;;;;5095574;28;20555;-71
2021/07/08 12:52:46;;;;;;;7.27;3.00;;;;;;;;;;5095871;28;20531;-72
2021/07/08 12:55:28;;;;;;;5.00;3.37;;;;;;;;;;5095531;28;20568;-72
2021/07/08 12:58:01;;;;;;;4.97;3.63;;;;;;;;;;5095579;28;20472;-70
2021/07/08 13:00:31;;;;;;;5.20;3.63;;;;;;;;;;5095149;28;20523;-69
2021/07/08 13:03:00;;;;;;;5.20;3.13;;;;;;;;;;5095736;28;20428;-69
2021/07/08 13:05:35;;;;;;;4.40;2.87;;;;;;;;;;5095315;28;20486;-69
2021/07/08 13:08:02;;;;;;;2.90;2.70;;;;;;;;;;5095561;28;20437;-69
2021/07/08 13:10:34;;;;;;;2.93;2.50;;;;;;;;;;5095377;28;20476;-69
2021/07/08 13:13:02;;;;;;;2.90;2.70;;;;;;;;;;5096204;28;20440;-69
2021/07/08 13:15:30;;;;;;;3.73;3.47;;;;;;;;;;5095427;28;20867;-69
2021/07/08 13:18:06;;;;;;;4.63;3.43;;;;;;;;;;5088775;28;20461;-71
2021/07/08 13:20:35;;;;;;;5.00;3.13;;;;;;;;;;5089366;28;20486;-69
2021/07/08 13:23:12;;;;;;;3.00;2.77;;;;;;;;;;5094474;28;20938;-69
2021/07/08 13:25:40;;;;;;;3.47;3.20;;;;;;;;;;5094923;28;20522;-69
2021/07/08 13:28:18;;;;;;;2.90;2.70;;;;;;;;;;5081354;28;20524;-70
2021/07/08 13:30:45;;;;;;;2.93;2.60;;;;;;;;;;5074500;28;20464;-70
2021/07/08 13:33:15;;;;;;;2.97;2.77;;;;;;;;;;5074616;28;20451;-70
2021/07/08 13:35:50;;;;;;;4.70;2.80;;;;;;;;;;5074568;28;20444;-70
2021/07/08 13:38:18;;;;;;;3.80;3.50;;;;;;;;;;5075430;28;20838;-70
2021/07/08 13:40:59;;;;;;;4.87;3.10;;;;;;;;;;5074442;28;20493;-70
2021/07/08 13:43:32;;;;;;;3.40;2.60;;;;;;;;;;5074702;28;20439;-70
2021/07/08 13:46:08;;;;;;;3.77;2.70;;;;;;;;;;5075684;28;20842;-71
2021/07/08 13:48:37;;;;;;;3.60;3.20;;;;;;;;;;5095167;28;20395;-71
2021/07/08 13:51:05;;;;;;;3.23;3.00;;;;;;;;;;5094341;28;20488;-71
2021/07/08 13:53:33;;;;;;;3.50;3.13;;;;;;;;;;5093811;28;20441;-71
2021/07/08 13:56:00;;;;;;;4.00;3.03;;;;;;;;;;5095124;28;20512;-71
2021/07/08 13:58:27;;;;;;;11.27;9.57;;;;;;;;;;5094195;28;20442;-70
2021/07/08 14:00:54;;;;;;;3.83;3.47;;;;;;;;;;5094440;28;20538;-71
2021/07/08 14:03:22;;;;;;;3.83;3.43;;;;;;;;;;5094401;28;20561;-70
2021/07/08 14:05:51;;;;;;;3.67;3.37;;;;;;;;;;5094538;28;20871;-70
2021/07/08 14:08:19;;;;;;;3.90;3.60;;;;;;;;;;5094052;28;20437;-70
2021/07/08 14:10:46;;;;;;;5.63;3.70;;;;;;;;;;5093875;28;20484;-70
2021/07/08 14:13:14;;;;;;;84.60;74.67;;;;;;;;;;5093219;28;20448;-69
2021/07/08 14:15:41;;;;;;;5.37;4.87;;;;;;;;;;5091375;28;20451;-69
2021/07/08 14:18:08;;;;;;;5.10;4.10;;;;;;;;;;5073412;28;20472;-69
2021/07/08 14:20:36;;;;;;;5.13;4.30;;;;;;;;;;5089038;28;20492;-69
2021/07/08 14:23:05;;;;;;;5.50;4.10;;;;;;;;;;5094213;28;20432;-71
2021/07/08 14:25:32;;;;;;;4.60;4.13;;;;;;;;;;5094508;28;20923;-69
2021/07/08 14:27:59;;;;;;;4.80;4.40;;;;;;;;;;5093951;28;20444;-69
2021/07/08 14:30:28;;;;;;;5.10;4.60;;;;;;;;;;5093864;28;20503;-69
2021/07/08 14:32:55;;;;;;;4.53;3.90;;;;;;;;;;5094355;28;20967;-68
2021/07/08 14:35:22;;;;;;;5.33;4.47;;;;;;;;;;5094107;28;20443;-69
2021/07/08 14:37:51;;;;;;;5.83;5.00;;;;;;;;;;5094009;28;20965;-69
2021/07/08 14:40:19;;;;;;;6.13;4.30;;;;;;;;;;5093602;28;20458;-69
2021/07/08 14:42:51;;;;;;;4.73;4.33;;;;;;;;;;5093702;28;20443;-69
2021/07/08 14:45:18;;;;;;;5.43;3.50;;;;;;;;;;5093847;28;20510;-68
2021/07/08 14:47:46;;;;;;;3.80;3.50;;;;;;;;;;5073827;28;20440;-69